Time;durP1;ratioP1;P1;durP2;ratioP2;P2;SDS_P1;SDS_P2;PMS_P1;PMS_P2;Temp;Humidity;BMP_temperature;BMP_pressure;BME280_temperature;BME280_humidity;BME280_pressure;Samples;Min_cycle;Max_cycle;Signal;HPM_P1;HPM_P2
2022/08/17 00:00:10;;;;;;;14.50;6.60;;;;;;;19.41;78.45;99749.39;105847;1271;22758;-65
2022/08/17 00:03:07;;;;;;;14.70;6.80;;;;;;;19.36;78.64;99748.60;105960;1272;24296;-68
2022/08/17 00:05:42;;;;;;;14.80;7.20;;;;;;;19.31;78.88;99751.20;105752;1271;25319;-66
2022/08/17 00:08:15;;;;;;;17.50;7.10;;;;;;;19.28;79.03;99748.48;105763;1272;22692;-66
2022/08/17 00:10:48;;;;;;;16.80;6.50;;;;;;;19.26;79.16;99747.41;105856;1271;25327;-66
2022/08/17 00:13:23;;;;;;;16.30;6.10;;;;;;;19.22;79.30;99747.98;105938;1271;24388;-66
2022/08/17 00:15:58;;;;;;;15.20;6.50;;;;;;;19.19;79.36;99742.34;105772;1271;25251;-66
2022/08/17 00:18:34;;;;;;;16.90;6.20;;;;;;;19.15;79.28;99741.86;106049;1272;22682;-65
2022/08/17 00:21:09;;;;;;;12.80;5.60;;;;;;;19.12;79.49;99738.18;105953;1272;22725;-65
2022/08/17 00:23:42;;;;;;;14.80;6.20;;;;;;;19.10;79.41;99736.02;105978;1271;24445;-65
2022/08/17 00:26:14;;;;;;;14.10;6.20;;;;;;;19.07;79.56;99737.06;105865;1272;22664;-66
2022/08/17 00:28:46;;;;;;;12.60;6.40;;;;;;;19.03;79.49;99741.11;105962;1271;24386;-65
2022/08/17 00:31:18;;;;;;;15.50;6.40;;;;;;;19.04;79.53;99743.67;106061;1271;22659;-65
2022/08/17 00:33:50;;;;;;;16.40;6.40;;;;;;;19.03;79.48;99742.23;105981;1273;25460;-65
2022/08/17 00:36:23;;;;;;;16.60;6.90;;;;;;;19.03;79.57;99747.86;105982;1273;24448;-65
2022/08/17 00:38:55;;;;;;;17.60;6.30;;;;;;;19.00;79.76;99745.76;105989;1271;22990;-65
2022/08/17 00:41:28;;;;;;;15.80;6.10;;;;;;;18.99;79.86;99753.47;105834;1271;25313;-65
2022/08/17 00:44:02;;;;;;;17.50;7.90;;;;;;;18.95;80.04;99756.64;105807;1271;24435;-66
2022/08/17 00:46:36;;;;;;;14.30;6.30;;;;;;;18.93;80.05;99753.29;106230;1272;25595;-65
2022/08/17 00:49:09;;;;;;;15.50;6.70;;;;;;;18.92;80.17;99753.57;105881;1273;25408;-65
2022/08/17 00:51:48;;;;;;;14.50;7.10;;;;;;;18.90;80.15;99748.84;105925;1273;24306;-66
2022/08/17 00:54:24;;;;;;;14.90;7.50;;;;;;;18.89;80.25;99751.32;105655;1271;22822;-65
2022/08/17 00:56:59;;;;;;;17.50;8.40;;;;;;;18.88;80.30;99754.36;105851;1273;23494;-65
2022/08/17 00:59:34;;;;;;;19.00;8.50;;;;;;;18.88;80.39;99755.45;105681;1271;24271;-65
2022/08/17 01:02:07;;;;;;;16.50;8.00;;;;;;;18.88;80.41;99757.80;105870;1273;22528;-65
2022/08/17 01:04:40;;;;;;;18.10;7.90;;;;;;;18.89;80.60;99756.25;105690;1273;24407;-65
2022/08/17 01:07:12;;;;;;;19.10;7.90;;;;;;;18.86;80.77;99754.30;105710;1272;22550;-65
2022/08/17 01:09:44;;;;;;;18.10;9.00;;;;;;;18.81;80.91;99758.73;105706;1272;22712;-65
2022/08/17 01:12:16;;;;;;;19.30;7.60;;;;;;;18.79;80.99;99756.73;105811;1273;22691;-65
2022/08/17 01:14:48;;;;;;;17.10;7.80;;;;;;;18.76;80.95;99761.64;105924;1273;25567;-65
2022/08/17 01:17:19;;;;;;;21.50;8.70;;;;;;;18.71;81.06;99761.73;105840;1271;22766;-65
2022/08/17 01:19:50;;;;;;;18.90;8.70;;;;;;;18.66;81.27;99766.46;105765;1273;24431;-65
2022/08/17 01:22:24;;;;;;;16.60;8.10;;;;;;;18.64;81.38;99766.36;105711;1272;24463;-64
2022/08/17 01:25:02;;;;;;;18.30;8.40;;;;;;;18.61;81.49;99762.07;105621;1273;22654;-64
2022/08/17 01:27:36;;;;;;;15.70;7.60;;;;;;;18.58;81.55;99758.27;105649;1273;22955;-65
2022/08/17 01:30:11;;;;;;;17.70;7.90;;;;;;;18.55;81.56;99754.41;105677;1273;22714;-65
2022/08/17 01:32:43;;;;;;;18.60;8.00;;;;;;;18.53;81.51;99754.91;105710;1273;23924;-66
2022/08/17 01:35:14;;;;;;;17.30;7.70;;;;;;;18.53;81.56;99752.16;105780;1273;22558;-65
2022/08/17 01:37:46;;;;;;;14.70;7.50;;;;;;;18.52;81.43;99747.85;105792;1271;24178;-64
2022/08/17 01:40:27;;;;;;;16.60;7.70;;;;;;;18.49;81.62;99746.88;105672;1271;24469;-65
2022/08/17 01:43:01;;;;;;;18.20;7.50;;;;;;;18.47;81.68;99744.06;105698;1273;25660;-66
2022/08/17 01:45:39;;;;;;;17.50;8.40;;;;;;;18.44;81.91;99743.76;105777;1273;25883;-67
2022/08/17 01:48:11;;;;;;;21.00;8.70;;;;;;;18.41;81.90;99740.88;105887;1273;22550;-64
2022/08/17 01:50:44;;;;;;;17.20;7.40;;;;;;;18.39;81.94;99742.18;105747;1271;22482;-66
2022/08/17 01:53:24;;;;;;;17.50;7.30;;;;;;;18.38;81.81;99736.50;105664;1272;22730;-65
2022/08/17 01:55:58;;;;;;;17.30;8.40;;;;;;;18.39;81.83;99743.17;105842;1273;22765;-65
2022/08/17 01:58:32;;;;;;;18.00;7.10;;;;;;;18.37;81.75;99738.88;105836;1273;22641;-65
2022/08/17 02:01:05;;;;;;;19.50;8.40;;;;;;;18.35;81.65;99743.54;105579;1273;23843;-65
2022/08/17 02:03:38;;;;;;;18.20;8.10;;;;;;;18.34;81.70;99744.95;105709;1272;22535;-65
2022/08/17 02:06:10;;;;;;;14.80;7.10;;;;;;;18.32;81.69;99741.26;105770;1272;22698;-65
2022/08/17 02:08:42;;;;;;;18.80;8.10;;;;;;;18.28;81.82;99742.73;106047;1272;22975;-65
2022/08/17 02:11:16;;;;;;;17.70;7.00;;;;;;;18.25;81.96;99743.25;105790;1273;24538;-65
2022/08/17 02:13:50;;;;;;;18.80;8.10;;;;;;;18.22;82.02;99745.77;105824;1273;23065;-65
2022/08/17 02:16:22;;;;;;;19.00;7.00;;;;;;;18.17;82.05;99745.51;105678;1273;25532;-65
2022/08/17 02:18:53;;;;;;;16.40;7.40;;;;;;;18.12;82.25;99746.73;105891;1273;26381;-65
2022/08/17 02:21:24;;;;;;;15.90;6.80;;;;;;;18.05;82.23;99743.79;105635;1271;23492;-65
2022/08/17 02:23:57;;;;;;;26.60;7.20;;;;;;;18.01;82.35;99743.42;105764;1273;25408;-65
2022/08/17 02:26:28;;;;;;;14.50;6.00;;;;;;;17.97;82.26;99737.64;105675;1273;22701;-65
2022/08/17 02:29:00;;;;;;;17.60;7.70;;;;;;;17.93;82.28;99739.20;105779;1271;22572;-66
2022/08/17 02:31:32;;;;;;;14.40;6.50;;;;;;;17.89;82.29;99736.77;105733;1271;24124;-65
2022/08/17 02:34:05;;;;;;;15.10;7.00;;;;;;;17.86;82.15;99738.14;105634;1273;22685;-65
2022/08/17 02:36:37;;;;;;;19.10;6.40;;;;;;;17.82;82.15;99737.77;105722;1271;23096;-66
2022/08/17 02:39:10;;;;;;;16.60;6.90;;;;;;;17.80;82.11;99732.25;105690;1273;25169;-66
2022/08/17 02:41:43;;;;;;;17.30;7.10;;;;;;;17.77;82.11;99732.36;105678;1273;24830;-64
2022/08/17 02:44:15;;;;;;;16.70;7.10;;;;;;;17.74;82.28;99733.73;105652;1273;22547;-64
2022/08/17 02:46:46;;;;;;;15.00;6.60;;;;;;;17.72;82.34;99735.63;105625;1273;22553;-67
2022/08/17 02:49:18;;;;;;;15.50;6.20;;;;;;;17.70;82.35;99736.40;105648;1273;24345;-65
2022/08/17 02:51:50;;;;;;;19.20;7.20;;;;;;;17.68;82.47;99735.04;105658;1273;22535;-65
2022/08/17 02:54:22;;;;;;;15.10;6.80;;;;;;;17.65;82.72;99740.01;105643;1273;22611;-64
2022/08/17 02:56:54;;;;;;;16.40;6.60;;;;;;;17.63;82.63;99737.48;105573;1273;22628;-64
2022/08/17 02:59:25;;;;;;;16.00;7.00;;;;;;;17.61;82.75;99746.14;105577;1273;22785;-64
2022/08/17 03:01:57;;;;;;;14.60;5.90;;;;;;;17.59;82.76;99750.44;105715;1273;25314;-65
2022/08/17 03:04:30;;;;;;;17.20;7.10;;;;;;;17.57;82.77;99749.23;106053;1273;25415;-65
2022/08/17 03:07:01;;;;;;;14.50;6.80;;;;;;;17.54;82.75;99757.14;105725;1271;24229;-64
2022/08/17 03:09:33;;;;;;;19.90;7.80;;;;;;;17.51;82.85;99750.98;105570;1273;25447;-64
2022/08/17 03:12:11;;;;;;;15.50;6.70;;;;;;;17.50;82.89;99754.48;105667;1271;22576;-65
2022/08/17 03:14:43;;;;;;;15.80;7.60;;;;;;;17.47;82.90;99758.37;105667;1271;22621;-65
2022/08/17 03:17:15;;;;;;;15.20;7.30;;;;;;;17.44;82.89;99755.39;105619;1272;23240;-65
2022/08/17 03:19:46;;;;;;;17.30;6.70;;;;;;;17.42;82.89;99752.08;105726;1273;22794;-65
2022/08/17 03:22:19;;;;;;;15.30;6.70;;;;;;;17.40;82.92;99753.77;105814;1273;22696;-65
2022/08/17 03:24:51;;;;;;;15.50;6.40;;;;;;;17.36;83.13;99753.46;105843;1273;24444;-65
2022/08/17 03:27:23;;;;;;;17.70;7.70;;;;;;;17.32;83.19;99758.86;105701;1273;24464;-65
2022/08/17 03:29:56;;;;;;;16.20;6.90;;;;;;;17.29;83.16;99759.59;105803;1271;25389;-64
2022/08/17 03:32:28;;;;;;;13.40;6.00;;;;;;;17.27;83.31;99763.91;105795;1271;25338;-64
2022/08/17 03:35:02;;;;;;;14.30;6.40;;;;;;;17.24;83.50;99764.36;105914;1273;22705;-65
2022/08/17 03:37:34;;;;;;;12.50;6.10;;;;;;;17.23;83.48;99765.77;106061;1273;22490;-64
2022/08/17 03:40:08;;;;;;;13.20;4.80;;;;;;;17.22;83.44;99763.02;105907;1273;24235;-65
2022/08/17 03:42:41;;;;;;;13.20;4.60;;;;;;;17.19;83.61;99765.43;105836;1271;23012;-65
2022/08/17 03:45:16;;;;;;;8.30;3.60;;;;;;;17.17;83.62;99764.18;105725;1271;22695;-64
2022/08/17 03:59:04;;;;;;;18.50;5.40;;;;;;;17.04;84.14;99776.48;105841;1271;22982;-65
2022/08/17 04:01:36;;;;;;;17.60;6.20;;;;;;;17.03;84.14;99777.11;105810;1272;22817;-65
2022/08/17 04:04:08;;;;;;;16.60;5.70;;;;;;;17.02;84.13;99782.40;105704;1272;25386;-63
2022/08/17 04:06:41;;;;;;;16.40;5.70;;;;;;;17.00;84.30;99780.83;105717;1271;24437;-64
2022/08/17 04:09:12;;;;;;;13.90;6.20;;;;;;;17.00;84.44;99784.73;105740;1273;25418;-64
2022/08/17 04:11:44;;;;;;;21.50;7.50;;;;;;;16.99;84.52;99785.81;105704;1271;22555;-65
2022/08/17 04:14:15;;;;;;;16.70;6.10;;;;;;;17.01;84.63;99783.39;105659;1272;24307;-64
2022/08/17 04:16:47;;;;;;;18.50;7.10;;;;;;;17.03;84.70;99782.91;105720;1272;25472;-64
2022/08/17 04:19:20;;;;;;;15.20;6.70;;;;;;;17.05;84.95;99786.21;105653;1272;25374;-64
2022/08/17 04:21:51;;;;;;;14.40;6.20;;;;;;;17.07;85.12;99788.77;105686;1273;22618;-64
2022/08/17 04:24:24;;;;;;;15.90;6.50;;;;;;;17.09;85.19;99789.54;105590;1271;25321;-63
2022/08/17 04:26:55;;;;;;;15.40;6.40;;;;;;;17.10;85.44;99792.84;105702;1271;22526;-64
2022/08/17 04:29:27;;;;;;;14.40;6.20;;;;;;;17.14;85.57;99795.30;105619;1271;25368;-64
2022/08/17 04:31:58;;;;;;;21.00;7.90;;;;;;;17.18;85.68;99796.47;105682;1271;25449;-64
2022/08/17 04:34:32;;;;;;;20.10;8.00;;;;;;;17.23;85.90;99802.50;105824;1271;25324;-64
2022/08/17 04:37:04;;;;;;;25.50;8.20;;;;;;;17.27;86.05;99804.02;105684;1271;24387;-65
2022/08/17 04:39:36;;;;;;;17.00;7.20;;;;;;;17.32;86.20;99802.15;105834;1271;22755;-64
2022/08/17 04:42:15;;;;;;;20.40;8.10;;;;;;;17.37;86.33;99803.27;105579;1271;25551;-63
2022/08/17 04:44:47;;;;;;;17.30;6.90;;;;;;;17.42;86.51;99805.09;105604;1271;25453;-66
2022/08/17 04:47:20;;;;;;;23.80;8.80;;;;;;;17.47;86.42;99807.77;105615;1271;25491;-65
2022/08/17 04:49:52;;;;;;;21.50;9.00;;;;;;;17.52;86.57;99810.23;105779;1271;23198;-66
2022/08/17 04:52:24;;;;;;;23.10;9.10;;;;;;;17.59;86.80;99805.50;105644;1271;24310;-65
2022/08/17 04:54:56;;;;;;;19.90;10.50;;;;;;;17.66;87.11;99804.11;105670;1271;24586;-66
2022/08/17 04:57:27;;;;;;;18.90;9.20;;;;;;;17.72;87.26;99803.23;105932;1271;22688;-65
2022/08/17 04:59:59;;;;;;;19.30;9.10;;;;;;;17.77;87.37;99805.30;105749;1271;25488;-66
2022/08/17 05:02:31;;;;;;;19.00;9.20;;;;;;;17.86;87.52;99806.29;106155;1271;22546;-66
2022/08/17 05:05:03;;;;;;;24.00;10.50;;;;;;;17.92;87.58;99804.44;105625;1271;22667;-66
2022/08/17 05:07:35;;;;;;;23.00;9.90;;;;;;;17.99;87.76;99803.83;106030;1271;25359;-66
2022/08/17 05:10:07;;;;;;;22.60;11.30;;;;;;;18.06;87.70;99807.45;105676;1271;25319;-66
2022/08/17 05:12:39;;;;;;;17.20;8.60;;;;;;;18.14;87.99;99807.46;105987;1271;22540;-66
2022/08/17 05:15:15;;;;;;;20.60;10.40;;;;;;;18.22;88.01;99813.12;105930;1271;22647;-65
2022/08/17 05:17:46;;;;;;;20.10;10.00;;;;;;;18.30;87.98;99812.49;105892;1271;22546;-66
2022/08/17 05:20:18;;;;;;;24.60;12.00;;;;;;;18.40;88.19;99815.09;105816;1271;24307;-66
2022/08/17 05:22:51;;;;;;;22.90;10.80;;;;;;;18.49;88.56;99821.02;105896;1272;23390;-66
2022/08/17 05:25:25;;;;;;;20.80;8.70;;;;;;;18.60;88.75;99819.91;105922;1271;22704;-66
2022/08/17 05:27:57;;;;;;;22.50;9.00;;;;;;;18.74;88.52;99822.10;106433;1258;23215;-55
2022/08/17 05:30:30;;;;;;;20.30;10.10;;;;;;;18.85;88.47;99820.85;105653;1271;25364;-51
2022/08/17 05:33:04;;;;;;;19.70;9.60;;;;;;;18.93;88.38;99819.78;105924;1271;26507;-55
2022/08/17 05:35:38;;;;;;;28.00;11.00;;;;;;;19.02;88.52;99821.75;106172;1270;22839;-52
2022/08/17 05:38:10;;;;;;;20.40;11.20;;;;;;;19.11;88.58;99816.34;105910;1270;25234;-52
2022/08/17 05:40:43;;;;;;;19.30;9.20;;;;;;;19.20;88.53;99813.84;107898;1270;25807;-52
2022/08/17 05:43:18;;;;;;;21.40;10.10;;;;;;;19.30;88.55;99812.36;105669;1271;22533;-51
2022/08/17 05:45:57;;;;;;;22.80;11.50;;;;;;;19.40;88.52;99814.02;105704;1271;22566;-54
2022/08/17 05:48:31;;;;;;;28.30;11.90;;;;;;;19.50;88.31;99815.20;105844;1270;22552;-52
2022/08/17 05:51:20;;;;;;;20.40;9.20;;;;;;;19.58;88.31;99809.61;105944;1270;22529;-53
2022/08/17 05:53:58;;;;;;;22.70;11.50;;;;;;;19.68;88.57;99810.30;106085;1270;24407;-55
2022/08/17 05:56:45;;;;;;;22.60;10.50;;;;;;;19.77;88.40;99810.31;105847;1270;23400;-53
2022/08/17 05:59:24;;;;;;;21.50;10.80;;;;;;;19.90;88.08;99811.39;105967;1273;22701;-52
2022/08/17 06:02:05;;;;;;;22.50;11.20;;;;;;;20.00;87.37;99812.66;105797;1271;22584;-54
2022/08/17 06:04:52;;;;;;;20.50;10.30;;;;;;;20.08;87.34;99816.58;105685;1271;22751;-51
2022/08/17 06:07:37;;;;;;;21.00;10.90;;;;;;;20.22;87.77;99817.84;105627;1271;24438;-53
2022/08/17 06:10:17;;;;;;;22.80;10.70;;;;;;;20.33;88.01;99823.70;105629;1270;25335;-55
2022/08/17 06:13:03;;;;;;;23.90;12.20;;;;;;;20.47;87.62;99821.79;105828;1270;24303;-50
2022/08/17 06:15:49;;;;;;;28.20;13.70;;;;;;;20.55;86.69;99822.48;105793;1270;22556;-52
2022/08/17 06:18:25;;;;;;;23.60;12.60;;;;;;;20.63;86.47;99825.15;105791;1270;24309;-55
2022/08/17 06:21:01;;;;;;;25.40;11.80;;;;;;;20.71;86.32;99824.35;105637;1270;24436;-58
2022/08/17 06:23:37;;;;;;;24.30;11.80;;;;;;;20.79;86.49;99832.30;105627;1271;22610;-55
2022/08/17 06:26:14;;;;;;;23.30;13.10;;;;;;;20.87;86.71;99831.29;105617;1271;22554;-52
2022/08/17 06:28:54;;;;;;;20.30;11.00;;;;;;;20.97;86.47;99832.46;105702;1270;24424;-52
2022/08/17 06:31:31;;;;;;;25.10;10.90;;;;;;;21.07;86.76;99828.33;105677;1270;22545;-53
2022/08/17 06:34:04;;;;;;;22.10;10.60;;;;;;;21.19;86.45;99829.84;105657;1271;23484;-53
2022/08/17 06:36:57;;;;;;;27.30;11.30;;;;;;;21.30;86.42;99832.34;105736;1271;22554;-51
2022/08/17 06:39:42;;;;;;;31.30;11.10;;;;;;;21.39;85.55;99833.16;105807;1271;22860;-51
2022/08/17 06:42:25;;;;;;;23.60;10.10;;;;;;;21.47;85.43;99837.08;105915;1270;22793;-54
2022/08/17 06:45:03;;;;;;;23.40;10.30;;;;;;;21.56;85.41;99841.56;105871;1270;22771;-51
2022/08/17 06:47:42;;;;;;;23.40;10.00;;;;;;;21.66;84.84;99839.65;105703;1271;22549;-52
2022/08/17 06:50:20;;;;;;;20.50;9.70;;;;;;;21.73;83.94;99841.64;105645;1270;25417;-53
2022/08/17 06:52:58;;;;;;;20.70;10.10;;;;;;;21.82;83.91;99841.46;105640;1271;22557;-50
2022/08/17 06:55:36;;;;;;;19.10;8.50;;;;;;;21.91;83.61;99842.17;106053;1270;24204;-54
2022/08/17 06:58:10;;;;;;;19.90;9.60;;;;;;;22.00;83.02;99844.45;105637;1270;22722;-53
2022/08/17 07:00:46;;;;;;;16.60;7.90;;;;;;;22.09;82.89;99843.47;105664;1271;24337;-53
2022/08/17 07:03:28;;;;;;;16.00;8.40;;;;;;;22.19;82.64;99848.92;105709;1271;23479;-52
2022/08/17 07:06:05;;;;;;;17.20;8.40;;;;;;;22.30;82.46;99848.88;105789;1270;22647;-53
2022/08/17 07:08:49;;;;;;;20.30;8.60;;;;;;;22.41;81.80;99850.05;105641;1271;24428;-53
2022/08/17 07:11:27;;;;;;;17.50;8.50;;;;;;;22.50;81.23;99846.88;105746;1271;24404;-55
2022/08/17 07:14:14;;;;;;;20.30;8.20;;;;;;;22.57;80.87;99847.36;105710;1271;22618;-55
2022/08/17 07:16:49;;;;;;;16.80;7.70;;;;;;;22.66;80.65;99850.33;105806;1270;24350;-52
2022/08/17 07:19:23;;;;;;;18.10;8.20;;;;;;;22.77;80.50;99851.02;105850;1270;22560;-51
2022/08/17 07:22:04;;;;;;;15.50;6.70;;;;;;;22.85;80.27;99851.06;104360;1271;1674774;-55
2022/08/17 07:24:42;;;;;;;13.20;6.90;;;;;;;22.94;80.31;99855.02;105783;1271;22553;-51
2022/08/17 07:27:20;;;;;;;18.70;8.20;;;;;;;23.03;79.87;99852.27;105708;1270;24302;-51
2022/08/17 07:29:57;;;;;;;15.60;7.60;;;;;;;23.11;79.52;99855.11;105778;1270;25529;-54
2022/08/17 07:32:31;;;;;;;17.00;7.50;;;;;;;23.19;79.78;99855.15;105917;1271;22685;-55
2022/08/17 07:35:13;;;;;;;14.80;7.40;;;;;;;23.28;79.55;99858.73;105719;1270;22617;-53
2022/08/17 07:37:51;;;;;;;15.50;6.90;;;;;;;23.38;78.48;99860.02;105724;1271;22555;-51
2022/08/17 07:40:36;;;;;;;16.60;6.50;;;;;;;23.48;78.64;99862.86;105566;1270;22697;-54
2022/08/17 07:43:23;;;;;;;14.90;6.00;;;;;;;23.59;77.82;99861.25;105782;1271;25314;-53
2022/08/17 07:48:53;;;;;;;14.20;5.70;;;;;;;23.86;76.22;99867.40;105691;1271;25357;-53
2022/08/17 07:51:28;;;;;;;15.20;6.50;;;;;;;23.96;76.07;99866.27;105713;1271;22529;-54
2022/08/17 07:54:03;;;;;;;12.30;5.60;;;;;;;24.07;74.92;99865.98;105453;1271;26670;-53
2022/08/17 07:56:39;;;;;;;14.20;5.90;;;;;;;24.19;75.16;99863.30;106256;1271;22529;-54
2022/08/17 07:59:14;;;;;;;17.10;7.00;;;;;;;24.29;74.96;99860.29;105657;1270;23081;-56
2022/08/17 08:02:02;;;;;;;13.80;6.00;;;;;;;24.40;74.32;99866.47;105809;1270;22617;-51
2022/08/17 08:04:36;;;;;;;11.50;4.40;;;;;;;24.50;72.90;99863.95;105851;1271;22630;-53
2022/08/17 08:07:12;;;;;;;12.90;4.60;;;;;;;24.58;72.40;99859.86;105872;1270;24423;-55
2022/08/17 08:09:47;;;;;;;13.00;5.20;;;;;;;24.65;71.61;99863.25;105807;1270;25507;-56
2022/08/17 08:12:32;;;;;;;14.10;4.70;;;;;;;24.73;71.25;99867.75;105729;1271;22549;-54
2022/08/17 08:15:13;;;;;;;15.30;3.90;;;;;;;24.81;70.59;99867.42;105593;1271;22550;-54
2022/08/17 08:17:54;;;;;;;14.20;4.30;;;;;;;24.89;69.82;99867.25;105988;1271;24297;-53
2022/08/17 08:20:34;;;;;;;14.90;4.80;;;;;;;25.01;68.88;99866.55;105753;1271;25039;-55
2022/08/17 08:23:10;;;;;;;;;;;;;;;25.11;68.40;99869.94;106053;1271;22572;-56
2022/08/17 08:25:56;;;;;;;15.30;4.00;;;;;;;25.18;68.13;99865.11;106056;1270;25729;-54
2022/08/17 08:28:35;;;;;;;12.10;4.70;;;;;;;25.30;67.97;99872.48;106237;1271;26745;-55
2022/08/17 08:31:17;;;;;;;16.60;5.60;;;;;;;25.37;67.48;99872.07;105968;1271;22654;-51
2022/08/17 08:33:59;;;;;;;11.60;4.70;;;;;;;25.42;67.51;99872.24;105825;1271;22548;-53
2022/08/17 08:36:58;;;;;;;12.20;5.00;;;;;;;25.51;66.54;99873.21;105789;1271;24287;-52
2022/08/17 08:39:38;;;;;;;9.60;4.30;;;;;;;25.59;66.23;99870.73;105790;1271;25241;-54
2022/08/17 08:42:19;;;;;;;10.60;4.30;;;;;;;25.67;65.64;99868.83;105620;1271;22524;-55
2022/08/17 08:45:00;;;;;;;10.50;4.20;;;;;;;25.77;65.77;99870.00;105706;1271;23067;-58
2022/08/17 08:47:50;;;;;;;10.70;4.10;;;;;;;25.83;65.33;99870.23;106105;1270;26082;-60
2022/08/17 08:50:30;;;;;;;14.40;4.60;;;;;;;25.92;64.32;99868.38;105839;1271;24418;-59
2022/08/17 08:53:15;;;;;;;10.70;4.40;;;;;;;26.06;64.55;99866.15;105863;1271;22675;-58
2022/08/17 08:55:55;;;;;;;14.40;5.00;;;;;;;26.17;64.00;99868.23;105933;1271;26113;-60
2022/08/17 08:58:36;;;;;;;11.60;4.30;;;;;;;26.29;63.70;99865.58;105700;1271;22550;-57
2022/08/17 09:01:21;;;;;;;15.20;4.90;;;;;;;26.36;63.40;99865.73;105625;1271;22530;-57
2022/08/17 09:04:19;;;;;;;14.70;4.80;;;;;;;26.43;63.24;99865.83;106138;1271;22690;-58
2022/08/17 09:07:07;;;;;;;13.40;5.40;;;;;;;26.53;63.33;99864.11;106195;1270;26814;-58
2022/08/17 09:09:56;;;;;;;12.30;4.70;;;;;;;26.63;62.62;99867.59;106198;1271;23126;-58
2022/08/17 09:12:41;;;;;;;12.90;4.00;;;;;;;26.70;62.41;99861.70;106235;1270;24225;-58
2022/08/17 09:15:19;;;;;;;10.60;4.00;;;;;;;26.77;61.86;99863.30;106155;1270;24039;-58
2022/08/17 09:17:58;;;;;;;10.00;4.40;;;;;;;26.83;61.56;99861.30;106215;1271;22611;-57
2022/08/17 09:20:34;;;;;;;11.70;4.80;;;;;;;26.87;60.55;99863.17;106115;1271;22734;-58
2022/08/17 09:23:19;;;;;;;11.70;4.70;;;;;;;26.91;60.61;99864.63;106213;1270;22655;-58
2022/08/17 09:25:58;;;;;;;13.20;4.80;;;;;;;26.98;60.63;99865.15;106056;1271;22596;-58
2022/08/17 09:28:30;;;;;;;;;;;;;;;27.05;60.54;99864.42;106537;1271;25362;-58
2022/08/17 09:31:07;;;;;;;12.70;4.60;;;;;;;27.10;59.80;99864.06;107551;1271;25378;-57
2022/08/17 09:33:45;;;;;;;11.50;4.40;;;;;;;27.15;59.36;99862.56;106167;1271;22715;-58
2022/08/17 09:36:24;;;;;;;10.90;4.70;;;;;;;27.23;59.17;99863.31;106039;1271;22551;-58
2022/08/17 09:39:01;;;;;;;13.80;4.50;;;;;;;27.31;59.21;99863.55;107413;1271;22530;-57
2022/08/17 09:41:44;;;;;;;10.00;4.70;;;;;;;27.36;58.81;99862.05;106308;1271;22593;-58
2022/08/17 09:44:25;;;;;;;11.00;4.60;;;;;;;27.40;58.32;99861.42;106146;1270;25419;-58
2022/08/17 09:47:03;;;;;;;12.20;5.20;;;;;;;27.47;57.53;99859.75;106176;1271;25357;-58
2022/08/17 09:49:42;;;;;;;10.10;4.50;;;;;;;27.53;57.63;99853.34;106347;1271;22535;-58
2022/08/17 09:52:19;;;;;;;17.80;8.00;;;;;;;27.59;57.47;99855.74;106181;1271;22563;-58
2022/08/17 09:54:54;;;;;;;13.90;6.30;;;;;;;27.65;57.39;99853.77;106116;1271;22570;-56
2022/08/17 09:57:39;;;;;;;15.80;4.60;;;;;;;27.72;57.03;99855.25;106183;1271;24275;-57
2022/08/17 10:00:19;;;;;;;14.60;3.50;;;;;;;27.78;56.13;99852.00;106127;1271;22683;-58
2022/08/17 10:03:01;;;;;;;11.40;4.10;;;;;;;27.82;55.91;99854.40;106126;1271;23302;-57
2022/08/17 10:05:42;;;;;;;7.70;3.00;;;;;;;27.89;55.77;99853.19;106306;1271;23712;-57
2022/08/17 10:08:22;;;;;;;9.80;3.50;;;;;;;27.97;55.51;99849.50;106128;1271;23315;-57
2022/08/17 10:11:05;;;;;;;14.10;4.30;;;;;;;28.11;55.03;99853.02;106124;1271;22720;-58
2022/08/17 10:13:45;;;;;;;10.70;4.60;;;;;;;28.26;55.09;99856.35;106149;1271;22831;-58
2022/08/17 10:16:26;;;;;;;12.00;4.40;;;;;;;28.35;54.56;99856.60;105882;1271;22525;-58
2022/08/17 10:19:08;;;;;;;11.00;3.40;;;;;;;28.40;53.55;99854.66;105982;1271;25207;-58
2022/08/17 10:27:36;;;;;;;9.90;3.70;;;;;;;28.49;51.78;99856.56;106082;1271;23034;-57
2022/08/17 10:30:12;;;;;;;10.90;4.20;;;;;;;28.53;51.78;99857.52;106104;1271;22560;-59
2022/08/17 10:32:53;;;;;;;7.50;2.80;;;;;;;28.55;52.00;99854.21;106219;1271;22554;-58
2022/08/17 10:35:39;;;;;;;9.30;3.60;;;;;;;28.59;51.04;99853.38;106302;1270;22885;-58
2022/08/17 10:38:46;;;;;;;9.30;3.50;;;;;;;28.62;50.63;99852.98;106127;1268;22570;-59
2022/08/17 10:41:29;;;;;;;11.20;3.60;;;;;;;28.68;50.33;99850.83;106236;1271;22550;-59
2022/08/17 10:44:10;;;;;;;11.30;3.80;;;;;;;28.69;49.56;99855.31;106199;1271;22615;-57
2022/08/17 10:47:04;;;;;;;8.90;3.40;;;;;;;28.69;50.25;99855.80;106117;1271;22563;-59
2022/08/17 10:49:37;;;;;;;10.00;3.60;;;;;;;28.77;50.04;99859.34;106279;1271;25402;-58
2022/08/17 10:52:44;;;;;;;16.70;4.40;;;;;;;28.89;49.42;99862.14;106223;1271;22615;-58
2022/08/17 10:55:19;;;;;;;10.10;3.50;;;;;;;28.96;49.11;99861.18;106283;1271;22573;-58
2022/08/17 10:57:53;;;;;;;9.20;3.30;;;;;;;28.99;49.40;99863.00;106186;1271;25436;-59
2022/08/17 11:00:58;;;;;;;11.10;3.70;;;;;;;29.06;49.05;99861.13;106183;1271;26687;-59
2022/08/17 11:03:31;;;;;;;11.00;3.90;;;;;;;29.15;48.42;99861.31;105905;1277;22534;-60
2022/08/17 11:06:16;;;;;;;8.00;2.90;;;;;;;29.18;47.96;99862.38;105855;1277;23135;-59
2022/08/17 11:09:15;;;;;;;11.40;3.70;;;;;;;29.23;47.25;99860.87;105664;1278;24224;-59
2022/08/17 11:12:06;;;;;;;9.70;3.60;;;;;;;29.27;47.09;99855.55;105593;1278;22790;-59
2022/08/17 11:14:55;;;;;;;10.00;3.60;;;;;;;29.31;46.68;99855.77;105536;1278;22772;-59
2022/08/17 11:17:54;;;;;;;10.50;3.70;;;;;;;29.31;46.10;99857.23;105558;1278;22702;-59
2022/08/17 11:20:55;;;;;;;9.20;3.10;;;;;;;29.31;46.11;99854.77;105210;1284;22693;-59
2022/08/17 11:23:56;;;;;;;12.50;4.30;;;;;;;29.34;46.11;99851.97;104491;1290;22878;-59
2022/08/17 11:26:30;;;;;;;12.30;4.10;;;;;;;29.41;46.14;99848.14;104518;1291;24241;-59
2022/08/17 11:29:08;;;;;;;9.80;3.70;;;;;;;29.48;45.76;99848.44;104568;1290;22909;-59
2022/08/17 11:31:45;;;;;;;10.40;3.80;;;;;;;29.53;45.56;99846.42;104722;1290;22590;-59
2022/08/17 11:34:21;;;;;;;8.10;3.40;;;;;;;29.61;45.86;99841.02;104506;1289;25502;-58
2022/08/17 11:37:33;;;;;;;9.20;3.60;;;;;;;29.71;46.15;99838.50;105867;1260;22570;-66
2022/08/17 11:40:36;;;;;;;8.90;2.50;;;;;;;29.87;45.64;99833.75;105805;1277;24448;-66
2022/08/17 11:43:32;;;;;;;8.10;3.00;;;;;;;30.02;44.97;99834.17;105362;1278;26581;-66
2022/08/17 11:46:17;;;;;;;7.10;3.00;;;;;;;30.10;44.89;99832.91;105582;1278;25432;-66
2022/08/17 11:52:13;;;;;;;8.00;2.50;;;;;;;30.20;44.49;99832.83;105504;1283;23210;-66
2022/08/17 11:54:49;;;;;;;10.30;3.30;;;;;;;30.21;44.08;99830.45;105675;1281;22568;-66
2022/08/17 11:57:58;;;;;;;10.40;3.50;;;;;;;30.19;43.83;99824.12;105972;1280;22587;-66
2022/08/17 12:00:59;;;;;;;10.50;3.20;;;;;;;30.11;43.59;99819.86;105639;1278;22555;-66
2022/08/17 12:03:56;;;;;;;9.20;3.50;;;;;;;30.03;43.99;99817.25;105547;1278;24322;-66
2022/08/17 12:06:45;;;;;;;10.30;4.30;;;;;;;30.03;44.60;99816.66;105473;1281;22698;-66
2022/08/17 12:09:23;;;;;;;7.20;3.10;;;;;;;30.08;44.60;99819.56;105624;1279;25544;-66
2022/08/17 12:11:57;;;;;;;8.70;3.60;;;;;;;30.13;44.30;99817.44;105766;1278;23770;-66
2022/08/17 12:14:33;;;;;;;10.20;3.90;;;;;;;30.17;44.15;99812.60;105616;1278;25526;-66
2022/08/17 12:17:11;;;;;;;12.90;3.40;;;;;;;30.21;43.86;99816.52;105690;1271;22582;-67
2022/08/17 12:19:44;;;;;;;6.40;3.10;;;;;;;30.25;43.21;99817.30;106192;1271;22709;-66
2022/08/17 12:22:22;;;;;;;8.30;3.60;;;;;;;30.23;43.27;99815.27;106607;1271;22557;-66
2022/08/17 12:25:03;;;;;;;11.80;3.60;;;;;;;30.22;43.42;99817.25;105967;1271;22757;-68
2022/08/17 12:27:44;;;;;;;10.90;3.50;;;;;;;30.25;43.32;99817.34;105975;1271;22571;-66